Time;durP1;ratioP1;P1;durP2;ratioP2;P2;SDS_P1;SDS_P2;PMS_P1;PMS_P2;Temp;Humidity;BMP_temperature;BMP_pressure;BME280_temperature;BME280_humidity;BME280_pressure;Samples;Min_cycle;Max_cycle;Signal;HPM_P1;HPM_P2
2023/10/09 00:02:08;;;;;;;4.60;3.33;;;11.60;1.00;;;;;;5103575;27;20439;-71
2023/10/09 00:04:36;;;;;;;5.80;2.93;;;11.50;1.00;;;;;;5108849;27;20842;-71
2023/10/09 00:07:07;;;;;;;3.83;3.10;;;11.40;1.00;;;;;;5103973;27;20608;-71
2023/10/09 00:09:46;;;;;;;3.40;3.10;;;11.40;1.00;;;;;;5101641;27;20475;-69
2023/10/09 00:12:15;;;;;;;3.30;2.50;;;11.40;1.00;;;;;;5104376;27;20447;-70
2023/10/09 00:14:48;;;;;;;3.43;2.40;;;11.30;1.00;;;;;;5110279;27;20464;-71
2023/10/09 00:17:19;;;;;;;3.17;2.87;;;11.30;1.00;;;;;;5104655;27;20470;-71
2023/10/09 00:19:49;;;;;;;3.00;2.80;;;11.20;1.00;;;;;;5111568;27;20522;-77
2023/10/09 00:22:29;;;;;;;2.23;2.03;;;11.20;1.00;;;;;;5109544;27;20463;-77
2023/10/09 00:25:21;;;;;;;3.50;2.23;;;11.20;1.00;;;;;;5105488;27;20466;-77
2023/10/09 00:27:48;;;;;;;3.17;2.87;;;11.10;1.00;;;;;;5106908;27;20454;-76
2023/10/09 00:30:19;;;;;;;4.00;2.90;;;11.20;1.00;;;;;;5105920;27;20468;-77
2023/10/09 00:32:58;;;;;;;3.87;3.07;;;11.10;1.00;;;;;;5105896;27;20456;-77
2023/10/09 00:35:46;;;;;;;2.87;2.67;;;11.10;1.00;;;;;;5107321;27;20466;-76
2023/10/09 00:38:18;;;;;;;4.20;2.70;;;11.00;1.00;;;;;;5106529;27;20458;-76
2023/10/09 00:40:46;;;;;;;3.27;2.97;;;10.90;1.00;;;;;;5099816;27;20470;-76
2023/10/09 00:43:13;;;;;;;3.83;3.23;;;10.90;1.00;;;;;;5108641;27;20478;-76
2023/10/09 00:45:44;;;;;;;4.17;3.03;;;10.80;1.00;;;;;;5106868;27;20532;-75
2023/10/09 00:48:14;;;;;;;4.73;2.87;;;10.70;1.00;;;;;;5106640;27;20906;-75
2023/10/09 00:50:52;;;;;;;3.10;2.77;;;10.70;1.00;;;;;;5107316;27;20560;-76
2023/10/09 00:53:30;;;;;;;3.10;2.77;;;10.60;1.00;;;;;;5102758;27;20587;-77
2023/10/09 00:56:03;;;;;;;4.47;3.00;;;10.60;1.00;;;;;;5104997;27;21072;-77
2023/10/09 00:58:36;;;;;;;3.40;3.10;;;10.50;1.00;;;;;;5107535;27;20446;-77
2023/10/09 01:01:15;;;;;;;3.90;2.87;;;10.50;1.00;;;;;;5106954;27;20433;-78
2023/10/09 01:03:44;;;;;;;3.87;2.80;;;10.50;1.00;;;;;;5106387;27;20540;-77
2023/10/09 01:06:21;;;;;;;3.07;2.77;;;10.40;1.00;;;;;;5105699;27;20469;-76
2023/10/09 01:08:56;;;;;;;3.53;2.73;;;10.30;1.00;;;;;;5107325;27;20465;-77
2023/10/09 01:11:29;;;;;;;4.97;3.20;;;10.30;1.00;;;;;;5104333;27;20878;-74
2023/10/09 01:14:11;;;;;;;3.97;3.00;;;10.40;1.00;;;;;;5103770;27;20965;-75
2023/10/09 01:16:42;;;;;;;3.63;3.17;;;10.40;1.00;;;;;;5107978;27;20950;-77
2023/10/09 01:19:19;;;;;;;3.10;2.80;;;10.30;1.00;;;;;;5103988;27;20540;-77
2023/10/09 01:21:47;;;;;;;3.20;2.90;;;10.30;1.00;;;;;;5107423;27;20458;-76
2023/10/09 01:24:19;;;;;;;6.17;3.40;;;10.40;1.00;;;;;;5106144;27;20442;-76
2023/10/09 01:26:47;;;;;;;4.40;3.23;;;10.40;1.00;;;;;;5104551;27;20505;-77
2023/10/09 01:29:19;;;;;;;3.43;2.73;;;10.40;1.00;;;;;;5109820;27;20445;-74
2023/10/09 01:31:54;;;;;;;3.57;2.50;;;10.40;1.00;;;;;;5105460;27;21027;-73
2023/10/09 01:34:26;;;;;;;3.20;2.90;;;10.40;1.00;;;;;;5107669;27;20450;-73
2023/10/09 01:36:55;;;;;;;3.80;3.33;;;10.40;1.00;;;;;;5104914;27;20478;-73
2023/10/09 01:39:26;;;;;;;4.37;3.20;;;10.40;1.00;;;;;;5104205;27;20461;-74
2023/10/09 01:41:58;;;;;;;4.53;3.23;;;10.40;1.00;;;;;;5105673;27;20853;-74
2023/10/09 01:44:34;;;;;;;5.23;3.83;;;10.40;1.00;;;;;;5106469;27;20504;-73
2023/10/09 01:47:06;;;;;;;4.07;3.10;;;10.40;1.00;;;;;;5107153;27;20453;-73
2023/10/09 01:49:35;;;;;;;4.30;3.00;;;10.40;1.00;;;;;;5106872;27;20605;-75
2023/10/09 01:52:07;;;;;;;4.90;3.37;;;10.40;1.00;;;;;;5105655;27;20469;-74
2023/10/09 01:54:37;;;;;;;4.10;3.03;;;10.30;1.00;;;;;;5107271;27;20492;-74
2023/10/09 01:57:09;;;;;;;3.80;3.50;;;10.30;1.00;;;;;;5105190;27;20549;-74
2023/10/09 01:59:38;;;;;;;3.97;3.53;;;10.30;1.00;;;;;;5105785;27;20463;-74
2023/10/09 02:02:14;;;;;;;3.87;2.83;;;10.20;1.00;;;;;;5106110;27;20487;-74
2023/10/09 02:04:40;;;;;;;4.17;3.20;;;10.30;1.00;;;;;;5107241;27;20894;-74
2023/10/09 02:07:08;;;;;;;5.40;3.20;;;10.40;1.00;;;;;;5106765;27;20973;-74
2023/10/09 02:09:44;;;;;;;3.87;3.10;;;10.40;1.00;;;;;;5107461;27;20561;-74
2023/10/09 02:12:12;;;;;;;3.63;3.33;;;10.40;1.00;;;;;;5102877;27;20469;-74
2023/10/09 02:14:41;;;;;;;5.10;3.00;;;10.30;1.00;;;;;;5104494;27;20466;-74
2023/10/09 02:17:09;;;;;;;4.50;3.17;;;10.30;1.00;;;;;;5104950;27;21172;-77
2023/10/09 02:19:40;;;;;;;3.90;3.20;;;10.30;1.00;;;;;;5105549;27;20874;-75
2023/10/09 02:22:12;;;;;;;3.63;3.03;;;10.30;1.00;;;;;;5103647;27;20538;-74
2023/10/09 02:24:57;;;;;;;5.23;3.40;;;10.30;1.00;;;;;;5103339;27;20612;-73
2023/10/09 02:30:15;;;;;;;3.40;3.07;;;10.30;1.00;;;;;;5104095;27;20450;-73
2023/10/09 02:32:43;;;;;;;4.00;3.17;;;10.30;1.00;;;;;;5100130;27;21257;-74
2023/10/09 02:35:20;;;;;;;3.60;2.93;;;10.40;1.00;;;;;;5106664;27;21244;-73
2023/10/09 02:37:47;;;;;;;3.30;3.00;;;10.40;1.00;;;;;;5106576;27;20618;-69
2023/10/09 02:40:31;;;;;;;3.20;2.90;;;10.40;1.00;;;;;;5108809;27;20496;-69
2023/10/09 02:42:58;;;;;;;3.90;3.57;;;10.40;1.00;;;;;;5102719;27;21007;-70
2023/10/09 02:45:32;;;;;;;5.10;3.93;;;10.50;1.00;;;;;;5105946;27;20453;-71
2023/10/09 02:48:00;;;;;;;5.07;3.73;;;10.50;1.00;;;;;;5102416;27;20506;-69
2023/10/09 02:50:29;;;;;;;5.80;3.50;;;10.50;1.00;;;;;;5105865;27;20456;-73
2023/10/09 02:53:08;;;;;;;5.37;3.87;;;10.40;1.00;;;;;;5105147;27;20469;-70
2023/10/09 02:55:38;;;;;;;8.60;3.90;;;10.30;1.00;;;;;;5106852;27;20454;-70
2023/10/09 02:58:07;;;;;;;7.53;4.37;;;10.20;1.00;;;;;;5106291;27;20564;-71
2023/10/09 03:00:36;;;;;;;4.30;3.90;;;10.10;1.00;;;;;;5106252;27;20422;-69
2023/10/09 03:03:06;;;;;;;5.40;4.67;;;10.10;1.00;;;;;;5104280;27;20460;-70
2023/10/09 03:05:33;;;;;;;6.27;4.20;;;10.10;1.00;;;;;;5106959;27;20459;-69
2023/10/09 03:08:02;;;;;;;6.90;4.37;;;10.10;1.00;;;;;;5107608;27;20464;-70
2023/10/09 03:10:29;;;;;;;5.27;4.13;;;10.20;1.00;;;;;;5105225;27;20485;-69
2023/10/09 03:13:03;;;;;;;11.60;5.20;;;10.20;1.00;;;;;;5100384;27;20462;-69
2023/10/09 03:15:35;;;;;;;6.90;5.10;;;10.20;1.00;;;;;;5107594;27;20449;-70
2023/10/09 03:18:04;;;;;;;7.37;5.53;;;10.30;1.00;;;;;;5105251;27;20477;-69
2023/10/09 03:20:31;;;;;;;4.50;4.10;;;10.30;1.00;;;;;;5107557;27;20453;-68
2023/10/09 03:23:01;;;;;;;7.20;5.10;;;10.30;1.00;;;;;;5106726;27;20474;-69
2023/10/09 03:25:28;;;;;;;5.37;4.57;;;10.30;1.00;;;;;;5102881;27;20418;-71
2023/10/09 03:27:56;;;;;;;5.10;4.60;;;10.20;1.00;;;;;;5096299;27;20444;-71
2023/10/09 03:30:24;;;;;;;7.20;5.70;;;10.20;1.00;;;;;;5131230;27;20458;-74
2023/10/09 03:32:51;;;;;;;7.93;6.07;;;10.20;1.00;;;;;;5106983;27;20477;-72
2023/10/09 03:35:24;;;;;;;9.30;4.87;;;10.20;1.00;;;;;;5107149;27;20495;-70
2023/10/09 03:37:56;;;;;;;7.97;6.10;;;10.20;1.00;;;;;;5102881;27;20484;-69
2023/10/09 03:40:24;;;;;;;7.37;5.80;;;10.30;1.00;;;;;;5105115;27;20480;-71
2023/10/09 03:42:52;;;;;;;10.20;6.77;;;10.30;1.00;;;;;;5101989;27;20619;-70
2023/10/09 03:45:24;;;;;;;6.40;5.27;;;10.30;1.00;;;;;;5101404;27;20451;-71
2023/10/09 03:48:08;;;;;;;11.00;8.73;;;10.20;1.00;;;;;;5101343;27;20580;-68
2023/10/09 03:50:37;;;;;;;6.53;5.40;;;10.30;1.00;;;;;;5106513;27;20575;-73
2023/10/09 03:53:07;;;;;;;9.17;5.33;;;10.30;1.00;;;;;;5107229;27;21210;-73
2023/10/09 03:55:35;;;;;;;6.20;5.60;;;10.20;1.00;;;;;;5105643;27;20459;-72
2023/10/09 03:58:02;;;;;;;6.87;5.57;;;10.20;1.00;;;;;;5107392;27;20445;-74
2023/10/09 04:00:31;;;;;;;6.43;5.50;;;10.10;1.00;;;;;;5107824;27;20572;-73
2023/10/09 04:02:59;;;;;;;7.90;7.20;;;10.20;1.00;;;;;;5103551;27;20496;-73
2023/10/09 04:05:28;;;;;;;6.73;5.57;;;10.20;1.00;;;;;;5102453;27;20471;-74
2023/10/09 04:07:58;;;;;;;7.93;7.03;;;10.20;1.00;;;;;;5105561;27;21077;-73
2023/10/09 04:10:44;;;;;;;6.80;6.27;;;10.20;1.00;;;;;;5110213;27;20455;-73
2023/10/09 04:13:16;;;;;;;6.13;5.50;;;10.30;1.00;;;;;;5116978;27;20996;-73
2023/10/09 04:15:43;;;;;;;9.50;7.73;;;10.30;1.00;;;;;;5106683;27;20556;-73
2023/10/09 04:18:19;;;;;;;6.00;5.50;;;10.30;1.00;;;;;;5105986;27;20576;-74
2023/10/09 04:21:15;;;;;;;6.13;5.53;;;10.30;1.00;;;;;;5106197;27;20461;-73
2023/10/09 04:23:59;;;;;;;7.43;5.90;;;10.40;1.00;;;;;;5115043;27;20609;-73
2023/10/09 04:26:26;;;;;;;7.63;6.27;;;10.50;1.00;;;;;;5114589;27;20455;-74
2023/10/09 04:28:53;;;;;;;11.13;9.30;;;10.40;1.00;;;;;;5110114;27;20453;-72
2023/10/09 04:31:22;;;;;;;6.33;5.70;;;10.40;1.00;;;;;;5101973;27;20457;-73
2023/10/09 04:34:21;;;;;;;7.37;5.43;;;10.40;1.00;;;;;;5106137;27;21159;-73
2023/10/09 04:36:49;;;;;;;5.80;5.03;;;10.30;1.00;;;;;;5107928;27;20509;-74
2023/10/09 04:39:35;;;;;;;8.13;6.07;;;10.30;1.00;;;;;;5106550;27;20452;-73
2023/10/09 04:42:36;;;;;;;6.13;5.33;;;10.30;1.00;;;;;;5106595;27;20442;-73
2023/10/09 04:47:57;;;;;;;9.03;7.43;;;10.30;1.00;;;;;;5105557;27;20512;-74
2023/10/09 04:53:23;;;;;;;6.00;5.27;;;10.50;1.00;;;;;;5110288;27;20487;-73
2023/10/09 04:55:57;;;;;;;6.50;5.90;;;10.50;1.00;;;;;;5104931;27;21076;-73
2023/10/09 04:58:25;;;;;;;6.73;5.77;;;10.50;1.00;;;;;;5104089;27;20456;-68
2023/10/09 05:03:44;;;;;;;6.07;5.53;;;10.40;1.00;;;;;;5094198;27;20707;-69
2023/10/09 05:06:42;;;;;;;5.90;5.27;;;10.40;1.00;;;;;;5105489;27;20603;-68
2023/10/09 05:09:19;;;;;;;6.37;5.77;;;10.30;1.00;;;;;;5106017;27;20956;-68
2023/10/09 05:12:15;;;;;;;6.50;5.57;;;10.30;1.00;;;;;;5107841;27;20519;-73
2023/10/09 05:14:59;;;;;;;6.20;5.60;;;10.20;1.00;;;;;;5106258;27;20612;-70
2023/10/09 05:17:25;;;;;;;9.53;5.07;;;10.20;1.00;;;;;;5108553;27;20522;-70
2023/10/09 05:20:55;;;;;;;6.07;5.50;;;10.20;1.00;;;;;;5106649;27;20544;-70
2023/10/09 05:22:57;;;;;;;6.70;6.00;;;10.20;1.00;;;;;;5105243;27;21512;-70
2023/10/09 05:28:25;;;;;;;6.60;5.00;;;10.20;1.00;;;;;;5102732;27;20474;-70
2023/10/09 05:31:02;;;;;;;7.60;5.20;;;10.10;1.00;;;;;;5103935;27;21253;-69
2023/10/09 05:33:33;;;;;;;6.40;4.87;;;10.10;1.00;;;;;;5105562;27;20945;-69
2023/10/09 05:36:31;;;;;;;5.77;4.40;;;10.10;1.00;;;;;;5106782;27;20474;-70
2023/10/09 05:41:52;;;;;;;7.50;5.03;;;10.20;1.00;;;;;;5104200;27;21013;-70
2023/10/09 05:49:54;;;;;;;6.50;5.90;;;10.10;1.00;;;;;;5091270;27;20457;-71
2023/10/09 05:55:48;;;;;;;10.37;5.80;;;10.20;1.00;;;;;;5078874;27;20600;-72
2023/10/09 06:03:55;;;;;;;6.70;4.50;;;10.30;1.00;;;;;;5042263;28;20890;-71
2023/10/09 06:06:42;;;;;;;5.60;5.10;;;10.20;1.00;;;;;;5079056;27;20453;-73
2023/10/09 06:17:24;;;;;;;6.63;5.00;;;10.20;1.00;;;;;;5109225;27;21236;-78
2023/10/09 06:19:58;;;;;;;5.83;4.83;;;10.20;1.00;;;;;;5106146;27;20472;-80
2023/10/09 06:25:17;;;;;;;7.67;4.60;;;10.30;1.00;;;;;;5101529;27;20453;-78
2023/10/09 06:27:58;;;;;;;6.63;4.70;;;10.40;1.00;;;;;;5107057;27;20466;-78
2023/10/09 06:30:27;;;;;;;6.17;5.57;;;10.40;1.00;;;;;;5103802;27;21277;-79
2023/10/09 06:33:04;;;;;;;4.33;3.90;;;10.40;1.00;;;;;;5103143;27;20470;-76
2023/10/09 06:35:35;;;;;;;42.47;35.27;;;10.40;1.00;;;;;;5106439;27;20477;-80
2023/10/09 06:38:21;;;;;;;5.87;5.30;;;10.50;1.00;;;;;;5104852;27;20513;-79
2023/10/09 06:43:43;;;;;;;6.13;5.20;;;10.50;1.00;;;;;;5102012;27;20953;-78
2023/10/09 06:49:28;;;;;;;5.97;5.33;;;10.60;1.00;;;;;;5105155;27;20446;-80
2023/10/09 06:51:47;;;;;;;6.00;5.23;;;10.60;1.00;;;;;;5100198;27;20469;-75
2023/10/09 06:54:16;;;;;;;5.77;4.90;;;10.70;1.00;;;;;;5103512;27;20569;-78
2023/10/09 06:59:41;;;;;;;8.33;5.93;;;10.80;1.00;;;;;;5103762;27;20473;-78
2023/10/09 07:02:25;;;;;;;8.30;5.40;;;10.80;1.00;;;;;;5104507;27;20973;-77
2023/10/09 07:04:54;;;;;;;7.03;4.97;;;10.80;1.00;;;;;;5105481;27;20559;-78
2023/10/09 07:07:24;;;;;;;5.80;4.83;;;10.80;1.00;;;;;;5102744;27;20467;-78
2023/10/09 07:12:42;;;;;;;5.70;4.73;;;10.80;1.00;;;;;;5101819;27;20972;-76
2023/10/09 07:18:18;;;;;;;6.43;5.50;;;11.00;1.00;;;;;;5100158;27;20484;-78
2023/10/09 07:20:58;;;;;;;6.87;5.77;;;11.10;1.00;;;;;;5100888;27;20476;-75
2023/10/09 07:23:28;;;;;;;9.13;5.60;;;11.10;1.00;;;;;;5108613;27;20953;-75
2023/10/09 07:28:49;;;;;;;7.60;5.13;;;11.20;1.00;;;;;;5102264;27;20461;-73
2023/10/09 07:31:29;;;;;;;6.73;5.80;;;11.20;1.00;;;;;;5101960;27;20906;-78
2023/10/09 07:33:59;;;;;;;6.17;5.57;;;11.10;1.00;;;;;;5104381;27;21703;-77
2023/10/09 07:36:37;;;;;;;6.00;5.47;;;11.10;1.00;;;;;;5104156;27;20474;-77
2023/10/09 07:39:15;;;;;;;7.70;6.83;;;11.10;1.00;;;;;;5103966;27;21055;-77
2023/10/09 07:41:55;;;;;;;7.20;5.93;;;11.10;1.00;;;;;;5103557;27;20454;-78
2023/10/09 07:44:36;;;;;;;6.73;6.13;;;11.20;1.00;;;;;;5104852;27;20953;-76
2023/10/09 07:47:16;;;;;;;8.50;6.03;;;11.30;1.00;;;;;;5103396;27;20578;-77
2023/10/09 07:49:48;;;;;;;9.50;6.00;;;11.20;1.00;;;;;;5100826;27;20587;-77
2023/10/09 07:52:16;;;;;;;6.70;6.10;;;11.20;1.00;;;;;;5105966;27;20528;-77
2023/10/09 07:54:49;;;;;;;6.57;5.87;;;11.20;1.00;;;;;;5101843;27;20449;-74
2023/10/09 07:57:17;;;;;;;5.60;5.10;;;11.20;1.00;;;;;;5100521;27;21211;-77
2023/10/09 07:59:54;;;;;;;5.83;5.23;;;11.10;1.00;;;;;;5101043;27;20515;-75
2023/10/09 08:02:31;;;;;;;8.70;5.70;;;11.10;1.00;;;;;;5105238;27;20453;-76
2023/10/09 08:05:03;;;;;;;6.17;5.37;;;11.20;1.00;;;;;;5101933;27;21255;-75
2023/10/09 08:07:35;;;;;;;6.67;5.30;;;11.30;1.00;;;;;;5094003;27;20469;-76
2023/10/09 08:13:20;;;;;;;6.57;5.87;;;11.40;1.00;;;;;;5105521;27;20441;-74
2023/10/09 08:15:51;;;;;;;5.83;5.10;;;11.40;1.00;;;;;;5107049;27;20549;-76
2023/10/09 08:18:27;;;;;;;6.87;5.77;;;11.50;1.00;;;;;;5105816;27;20496;-74
2023/10/09 08:23:48;;;;;;;6.27;5.67;;;11.50;1.00;;;;;;5106409;27;20957;-74
2023/10/09 08:26:28;;;;;;;6.83;5.57;;;11.50;1.00;;;;;;5104982;27;20437;-77
2023/10/09 08:29:15;;;;;;;4.73;4.23;;;11.60;1.00;;;;;;5102591;27;20465;-79
2023/10/09 08:31:46;;;;;;;5.43;4.93;;;11.50;1.00;;;;;;5106596;27;20477;-74
2023/10/09 08:34:24;;;;;;;6.70;6.00;;;11.50;1.00;;;;;;5106972;27;20497;-78
2023/10/09 08:36:52;;;;;;;6.03;5.37;;;11.50;1.00;;;;;;5109969;27;20611;-74
2023/10/09 08:39:25;;;;;;;6.20;5.40;;;11.50;1.00;;;;;;5106263;27;20467;-75
2023/10/09 08:41:53;;;;;;;6.37;4.33;;;11.60;1.00;;;;;;5109830;27;20504;-76
2023/10/09 08:44:25;;;;;;;6.07;4.40;;;11.60;1.00;;;;;;5106921;27;20461;-74
2023/10/09 08:46:53;;;;;;;5.13;4.33;;;11.60;1.00;;;;;;5109146;27;20457;-80
2023/10/09 08:49:22;;;;;;;5.90;4.80;;;11.60;1.00;;;;;;5109485;27;20482;-75
2023/10/09 08:51:49;;;;;;;6.43;5.83;;;11.50;1.00;;;;;;5107841;27;20527;-77
2023/10/09 08:54:16;;;;;;;5.80;5.20;;;11.60;1.00;;;;;;5112343;27;20535;-78
2023/10/09 08:56:50;;;;;;;9.17;5.60;;;11.70;1.00;;;;;;5108692;27;20466;-79
2023/10/09 08:59:19;;;;;;;5.23;4.53;;;11.70;1.00;;;;;;5109413;27;20574;-77
2023/10/09 09:01:49;;;;;;;7.40;5.93;;;11.70;1.00;;;;;;5109206;27;20450;-80
2023/10/09 09:04:42;;;;;;;6.17;5.57;;;11.70;1.00;;;;;;5112887;27;20422;-76
2023/10/09 09:07:26;;;;;;;6.30;5.70;;;11.70;1.00;;;;;;5113272;27;20478;-78
2023/10/09 09:09:57;;;;;;;7.93;6.53;;;11.80;1.00;;;;;;5110990;27;20860;-81
2023/10/09 09:12:24;;;;;;;7.13;6.23;;;12.00;1.00;;;;;;5112022;27;20475;-78
2023/10/09 09:14:52;;;;;;;9.17;6.60;;;12.10;1.00;;;;;;5109087;27;20512;-81
2023/10/09 09:17:27;;;;;;;6.40;5.70;;;12.20;1.00;;;;;;5110375;27;20445;-80
2023/10/09 09:19:57;;;;;;;7.93;6.30;;;12.30;1.00;;;;;;5106311;27;20463;-80
2023/10/09 09:22:26;;;;;;;8.03;5.60;;;12.30;1.00;;;;;;5108960;27;20591;-78
2023/10/09 09:25:03;;;;;;;6.50;5.90;;;12.30;1.00;;;;;;5104139;27;20462;-80
2023/10/09 09:27:49;;;;;;;8.77;6.83;;;12.40;1.00;;;;;;5106619;27;20485;-80
2023/10/09 09:30:32;;;;;;;9.77;6.47;;;12.50;1.00;;;;;;5108569;27;20462;-78
2023/10/09 09:33:20;;;;;;;6.07;5.47;;;12.60;1.00;;;;;;5108767;27;20465;-79
2023/10/09 09:36:03;;;;;;;10.23;6.03;;;12.70;1.00;;;;;;5106619;27;20558;-78
2023/10/09 09:38:47;;;;;;;6.83;6.20;;;12.70;1.00;;;;;;5110562;27;20467;-77
2023/10/09 09:41:23;;;;;;;7.27;6.00;;;12.80;1.00;;;;;;5102678;27;20594;-74
2023/10/09 09:43:55;;;;;;;6.63;5.43;;;12.90;1.00;;;;;;5105527;27;20474;-80
2023/10/09 09:46:30;;;;;;;9.50;5.70;;;12.90;1.00;;;;;;5108742;27;20577;-76
2023/10/09 09:49:00;;;;;;;6.07;4.83;;;12.90;1.00;;;;;;5107160;27;20470;-76
2023/10/09 09:51:30;;;;;;;5.80;5.30;;;12.80;1.00;;;;;;5109318;27;20459;-81
2023/10/09 09:53:57;;;;;;;6.03;5.10;;;12.80;1.00;;;;;;5111971;27;20984;-79
2023/10/09 09:56:26;;;;;;;8.33;5.53;;;12.70;1.00;;;;;;5111294;27;21022;-81
2023/10/09 09:58:56;;;;;;;9.30;5.30;;;12.70;1.00;;;;;;5111103;27;20447;-81
2023/10/09 10:01:27;;;;;;;6.00;5.40;;;12.70;1.00;;;;;;5108901;27;20473;-77
2023/10/09 10:04:00;;;;;;;6.10;5.60;;;12.60;1.00;;;;;;5107982;27;20559;-79
2023/10/09 10:06:32;;;;;;;5.63;5.13;;;12.60;1.00;;;;;;5107961;27;20464;-74
2023/10/09 10:08:59;;;;;;;6.77;5.37;;;12.60;1.00;;;;;;5108390;27;20456;-80
2023/10/09 10:11:52;;;;;;;5.67;5.10;;;12.50;1.00;;;;;;5107076;27;20474;-80
2023/10/09 10:14:28;;;;;;;6.40;5.43;;;12.50;1.00;;;;;;5089565;27;20450;-78
2023/10/09 10:17:03;;;;;;;5.93;5.37;;;12.50;1.00;;;;;;5107318;27;20469;-74
2023/10/09 10:19:59;;;;;;;6.40;5.27;;;12.50;1.00;;;;;;5106490;27;20618;-74
2023/10/09 10:22:29;;;;;;;6.40;5.43;;;12.60;1.00;;;;;;5101974;27;20458;-76
2023/10/09 10:25:01;;;;;;;5.60;5.10;;;12.30;1.00;;;;;;5108137;27;20468;-77
2023/10/09 10:27:28;;;;;;;7.30;6.23;;;12.30;1.00;;;;;;5108009;27;21348;-75
2023/10/09 10:30:36;;;;;;;8.10;7.30;;;12.30;1.00;;;;;;5107943;27;20466;-77
2023/10/09 10:33:12;;;;;;;6.00;5.40;;;12.30;1.00;;;;;;5108141;27;21076;-76
2023/10/09 10:35:45;;;;;;;6.30;5.70;;;12.20;1.00;;;;;;5106030;27;20457;-76
2023/10/09 10:38:43;;;;;;;6.63;5.97;;;12.20;1.00;;;;;;5107391;27;20450;-74
2023/10/09 10:41:17;;;;;;;6.10;5.40;;;12.30;1.00;;;;;;5105395;27;20526;-77
2023/10/09 10:44:33;;;;;;;6.30;5.70;;;12.50;1.00;;;;;;5104231;27;20596;-76
2023/10/09 10:46:52;;;;;;;5.63;5.20;;;12.80;1.00;;;;;;5103199;27;21228;-76
2023/10/09 10:49:21;;;;;;;6.70;5.53;;;12.90;1.00;;;;;;5107648;27;20465;-67
2023/10/09 10:51:49;;;;;;;6.57;5.40;;;12.90;1.00;;;;;;5109104;27;20520;-68
2023/10/09 10:57:28;;;;;;;6.93;5.90;;;13.10;1.00;;;;;;5104669;27;20457;-72
2023/10/09 11:00:12;;;;;;;6.77;6.07;;;13.20;1.00;;;;;;5105877;27;20554;-71
2023/10/09 11:02:40;;;;;;;5.40;4.90;;;13.20;1.00;;;;;;5106582;27;20468;-72
2023/10/09 11:05:23;;;;;;;5.43;4.80;;;13.30;1.00;;;;;;5105942;27;20536;-71
2023/10/09 11:07:58;;;;;;;6.30;5.53;;;13.40;1.00;;;;;;5104498;27;20516;-71
2023/10/09 11:10:31;;;;;;;6.83;5.67;;;13.30;1.00;;;;;;5105440;27;20921;-71
2023/10/09 11:15:56;;;;;;;6.80;6.20;;;13.30;1.00;;;;;;5099236;27;20561;-73
2023/10/09 11:18:27;;;;;;;6.60;6.00;;;13.40;1.00;;;;;;5109839;27;20457;-72
2023/10/09 11:21:22;;;;;;;7.10;6.40;;;13.40;1.00;;;;;;5106856;27;21020;-70
2023/10/09 11:23:57;;;;;;;12.33;7.20;;;13.50;1.00;;;;;;5107726;27;20467;-75
2023/10/09 11:26:25;;;;;;;7.20;6.53;;;13.70;1.00;;;;;;5106138;27;20489;-69
2023/10/09 11:29:23;;;;;;;8.23;7.17;;;13.90;1.00;;;;;;5105166;27;20453;-72
2023/10/09 11:32:00;;;;;;;15.60;11.93;;;13.90;1.00;;;;;;5106159;27;20494;-71
2023/10/09 11:34:29;;;;;;;6.50;5.90;;;13.90;1.00;;;;;;5105934;27;20579;-70
2023/10/09 11:36:58;;;;;;;7.57;6.87;;;13.70;1.00;;;;;;5105612;27;20471;-73
2023/10/09 11:39:32;;;;;;;7.47;6.87;;;13.60;1.00;;;;;;5107279;27;21012;-71
2023/10/09 11:42:07;;;;;;;8.00;7.40;;;13.50;1.00;;;;;;5103937;27;20459;-73
2023/10/09 11:44:39;;;;;;;8.57;6.83;;;13.50;1.00;;;;;;5107717;27;20474;-71
2023/10/09 11:47:32;;;;;;;7.90;7.10;;;13.30;1.00;;;;;;5103136;27;20520;-72
2023/10/09 11:50:17;;;;;;;7.93;7.03;;;13.20;1.00;;;;;;5103701;27;20599;-71
2023/10/09 11:53:08;;;;;;;6.70;6.20;;;13.40;1.00;;;;;;5102449;27;20581;-72
2023/10/09 11:55:35;;;;;;;10.37;6.70;;;13.60;1.00;;;;;;5105967;27;20997;-73
2023/10/09 11:58:06;;;;;;;9.20;8.00;;;13.80;1.00;;;;;;5103074;27;21330;-72
2023/10/09 12:00:44;;;;;;;8.40;7.70;;;13.80;1.00;;;;;;5099642;27;20837;-70
2023/10/09 12:03:13;;;;;;;8.60;7.80;;;14.00;1.00;;;;;;5096673;27;20479;-71
2023/10/09 12:05:43;;;;;;;8.73;7.90;;;14.10;1.00;;;;;;5108105;27;20463;-69
2023/10/09 12:08:11;;;;;;;11.93;7.97;;;14.20;1.00;;;;;;5104091;27;20453;-73
2023/10/09 12:10:40;;;;;;;8.00;7.23;;;14.20;1.00;;;;;;5105296;27;20465;-70
2023/10/09 12:13:08;;;;;;;8.30;7.47;;;14.30;1.00;;;;;;5110503;27;20917;-71
2023/10/09 12:15:38;;;;;;;7.43;6.73;;;14.30;1.00;;;;;;5107615;27;20563;-74
2023/10/09 12:18:14;;;;;;;9.80;7.57;;;14.20;1.00;;;;;;5110367;27;20468;-73
2023/10/09 12:20:41;;;;;;;7.93;7.23;;;14.10;1.00;;;;;;5109428;27;20464;-71
2023/10/09 12:23:13;;;;;;;8.80;7.90;;;14.20;1.00;;;;;;5108969;27;20511;-70
2023/10/09 12:25:40;;;;;;;9.60;8.43;;;14.10;1.00;;;;;;5110292;27;20521;-72
2023/10/09 12:28:12;;;;;;;8.67;7.97;;;14.00;1.00;;;;;;5112038;27;20570;-70
2023/10/09 12:30:40;;;;;;;7.87;7.17;;;14.10;1.00;;;;;;5109082;27;20451;-73
2023/10/09 12:33:08;;;;;;;7.70;7.00;;;14.20;1.00;;;;;;5112045;27;20448;-71
2023/10/09 12:35:38;;;;;;;8.60;7.90;;;14.00;1.00;;;;;;5106266;27;20452;-71
2023/10/09 12:38:08;;;;;;;9.00;8.27;;;13.90;1.00;;;;;;5109244;27;20468;-73
2023/10/09 12:40:36;;;;;;;8.30;7.50;;;13.70;1.00;;;;;;5106413;27;20537;-71
2023/10/09 12:43:03;;;;;;;8.93;8.07;;;13.80;1.00;;;;;;5122178;27;20491;-71
2023/10/09 12:45:35;;;;;;;8.53;8.00;;;13.80;1.00;;;;;;5110192;27;21028;-70
2023/10/09 12:48:03;;;;;;;8.53;7.63;;;13.90;1.00;;;;;;5108171;27;20450;-72
2023/10/09 12:50:33;;;;;;;8.77;8.03;;;13.90;1.00;;;;;;5109593;27;20457;-71
2023/10/09 12:53:06;;;;;;;9.63;8.83;;;14.00;1.00;;;;;;5110528;27;20956;-70
2023/10/09 12:55:40;;;;;;;9.27;8.37;;;13.90;1.00;;;;;;5111003;27;20452;-71
2023/10/09 12:58:07;;;;;;;7.90;7.30;;;13.80;1.00;;;;;;5111553;27;20449;-70
2023/10/09 13:00:41;;;;;;;9.77;8.53;;;13.60;1.00;;;;;;5109732;27;20546;-70
2023/10/09 13:03:16;;;;;;;14.93;13.43;;;13.50;1.00;;;;;;5109991;27;20568;-72
2023/10/09 13:05:54;;;;;;;9.70;8.90;;;13.40;1.00;;;;;;5109068;27;20472;-69
2023/10/09 13:08:22;;;;;;;10.40;9.50;;;13.30;1.00;;;;;;5109912;27;22075;-72
2023/10/09 13:10:59;;;;;;;9.63;8.83;;;13.30;1.00;;;;;;5115500;27;20452;-78
2023/10/09 13:13:39;;;;;;;9.23;8.33;;;13.10;1.00;;;;;;5109857;27;20447;-78
2023/10/09 13:16:11;;;;;;;9.63;8.73;;;13.20;1.00;;;;;;5114560;27;20483;-79
2023/10/09 13:18:38;;;;;;;11.10;10.20;;;13.30;1.00;;;;;;5117602;27;20471;-79
2023/10/09 13:21:05;;;;;;;8.97;8.17;;;13.50;1.00;;;;;;5111058;27;20448;-80
2023/10/09 13:23:38;;;;;;;10.50;9.60;;;13.60;1.00;;;;;;5105932;27;20454;-77
2023/10/09 13:26:17;;;;;;;7.83;7.23;;;13.70;1.00;;;;;;5108030;27;20513;-79
2023/10/09 13:28:45;;;;;;;9.00;8.23;;;13.80;1.00;;;;;;5111454;27;21719;-79
2023/10/09 13:31:15;;;;;;;9.70;8.90;;;13.60;1.00;;;;;;5112819;27;20500;-79
2023/10/09 13:33:43;;;;;;;11.67;9.30;;;13.50;1.00;;;;;;5109715;27;20486;-77
2023/10/09 13:36:19;;;;;;;9.90;9.10;;;13.60;1.00;;;;;;5105072;27;21718;-77
2023/10/09 13:38:46;;;;;;;10.13;9.27;;;13.50;1.00;;;;;;5110554;27;20562;-79
2023/10/09 13:41:14;;;;;;;16.30;14.80;;;13.40;1.00;;;;;;5104976;27;20452;-77
2023/10/09 13:43:42;;;;;;;10.27;9.27;;;13.30;1.00;;;;;;5111462;27;20456;-75
2023/10/09 13:46:11;;;;;;;10.47;9.57;;;13.30;1.00;;;;;;5108663;27;20962;-79
2023/10/09 13:48:41;;;;;;;10.87;9.93;;;13.20;1.00;;;;;;5110066;27;20474;-78
2023/10/09 13:51:13;;;;;;;10.40;9.50;;;13.20;1.00;;;;;;5109430;27;20467;-78
2023/10/09 13:53:45;;;;;;;11.27;10.30;;;13.20;1.00;;;;;;5108054;27;20488;-79
2023/10/09 13:56:18;;;;;;;9.97;9.00;;;13.30;1.00;;;;;;5106932;27;20462;-78
2023/10/09 13:58:46;;;;;;;9.10;8.30;;;13.20;1.00;;;;;;5108764;27;20469;-78
2023/10/09 14:01:20;;;;;;;9.63;8.80;;;13.20;1.00;;;;;;5108292;27;20947;-76
2023/10/09 14:03:51;;;;;;;11.17;10.07;;;13.20;1.00;;;;;;5111788;27;20462;-78
2023/10/09 14:06:30;;;;;;;9.80;8.80;;;13.30;1.00;;;;;;5114662;27;20592;-81
2023/10/09 14:08:57;;;;;;;8.87;8.03;;;13.20;1.00;;;;;;5114131;27;20837;-80
2023/10/09 14:11:24;;;;;;;10.63;8.33;;;13.20;1.00;;;;;;5114652;27;20487;-78
2023/10/09 14:13:53;;;;;;;9.30;8.50;;;13.20;1.00;;;;;;5109737;27;20870;-76
2023/10/09 14:16:27;;;;;;;8.83;8.03;;;13.20;1.00;;;;;;5107114;27;20468;-76
2023/10/09 14:18:57;;;;;;;10.27;9.37;;;13.10;1.00;;;;;;5107892;27;20590;-78
2023/10/09 14:21:28;;;;;;;9.00;8.20;;;13.00;1.00;;;;;;5111878;27;20505;-76
2023/10/09 14:23:58;;;;;;;10.80;9.67;;;13.00;1.00;;;;;;5105912;27;20471;-76
2023/10/09 14:26:29;;;;;;;9.30;8.40;;;13.10;1.00;;;;;;5112447;27;20845;-77
2023/10/09 14:28:57;;;;;;;9.50;8.63;;;13.10;1.00;;;;;;5103294;27;20486;-77
2023/10/09 14:31:28;;;;;;;8.60;7.90;;;13.20;1.00;;;;;;5105335;27;20459;-76
2023/10/09 14:33:57;;;;;;;9.40;8.60;;;13.10;1.00;;;;;;5104715;27;20465;-77
2023/10/09 14:36:32;;;;;;;8.80;8.10;;;13.10;1.00;;;;;;5103205;27;20476;-76
2023/10/09 14:39:00;;;;;;;9.53;8.53;;;13.10;1.00;;;;;;5100697;27;20962;-77
2023/10/09 14:41:33;;;;;;;8.23;7.53;;;13.10;1.00;;;;;;5106448;27;20451;-76